sensor_id;sensor_type;location;lat;lon;timestamp;P1;durP1;ratioP1;P2;durP2;ratioP2
66593;SDS011;53450;42.584;23.366;2022-10-30T00:00:39;3.50;;;1.97;;
66593;SDS011;53450;42.584;23.366;2022-10-30T00:03:05;2.80;;;2.00;;
66593;SDS011;53450;42.584;23.366;2022-10-30T00:05:30;2.27;;;1.60;;
66593;SDS011;53450;42.584;23.366;2022-10-30T00:07:56;1.97;;;1.70;;
66593;SDS011;53450;42.584;23.366;2022-10-30T00:10:23;2.30;;;1.70;;
66593;SDS011;53450;42.584;23.366;2022-10-30T00:12:49;10.20;;;2.17;;
66593;SDS011;53450;42.584;23.366;2022-10-30T00:15:47;5.32;;;3.58;;
66593;SDS011;53450;42.584;23.366;2022-10-30T00:18:15;13.97;;;4.70;;
66593;SDS011;53450;42.584;23.366;2022-10-30T00:20:40;7.10;;;4.23;;
66593;SDS011;53450;42.584;23.366;2022-10-30T00:23:06;4.70;;;3.07;;
66593;SDS011;53450;42.584;23.366;2022-10-30T00:25:33;6.70;;;3.00;;
66593;SDS011;53450;42.584;23.366;2022-10-30T00:27:59;4.67;;;2.50;;
66593;SDS011;53450;42.584;23.366;2022-10-30T00:30:25;6.80;;;3.13;;
66593;SDS011;53450;42.584;23.366;2022-10-30T00:32:50;3.67;;;2.67;;
66593;SDS011;53450;42.584;23.366;2022-10-30T00:35:16;7.40;;;3.07;;
66593;SDS011;53450;42.584;23.366;2022-10-30T00:37:42;3.23;;;2.67;;
66593;SDS011;53450;42.584;23.366;2022-10-30T00:40:09;4.77;;;3.20;;
66593;SDS011;53450;42.584;23.366;2022-10-30T00:42:39;5.10;;;3.13;;
66593;SDS011;53450;42.584;23.366;2022-10-30T00:45:05;3.90;;;2.77;;
66593;SDS011;53450;42.584;23.366;2022-10-30T00:47:38;5.57;;;3.20;;
66593;SDS011;53450;42.584;23.366;2022-10-30T00:53:06;5.97;;;3.27;;
66593;SDS011;53450;42.584;23.366;2022-10-30T00:55:43;6.43;;;2.40;;
66593;SDS011;53450;42.584;23.366;2022-10-30T00:58:12;4.27;;;2.50;;
66593;SDS011;53450;42.584;23.366;2022-10-30T01:00:42;5.63;;;2.10;;
66593;SDS011;53450;42.584;23.366;2022-10-30T01:03:13;5.95;;;1.98;;
66593;SDS011;53450;42.584;23.366;2022-10-30T01:05:41;4.40;;;2.40;;
66593;SDS011;53450;42.584;23.366;2022-10-30T01:08:10;3.20;;;2.13;;
66593;SDS011;53450;42.584;23.366;2022-10-30T01:10:36;6.43;;;3.23;;
66593;SDS011;53450;42.584;23.366;2022-10-30T01:13:03;4.00;;;2.10;;
66593;SDS011;53450;42.584;23.366;2022-10-30T01:15:33;7.47;;;3.00;;
66593;SDS011;53450;42.584;23.366;2022-10-30T01:18:25;2.73;;;2.27;;
66593;SDS011;53450;42.584;23.366;2022-10-30T01:26:40;3.33;;;2.70;;
66593;SDS011;53450;42.584;23.366;2022-10-30T01:29:20;4.60;;;2.23;;
66593;SDS011;53450;42.584;23.366;2022-10-30T01:35:02;3.70;;;2.50;;
66593;SDS011;53450;42.584;23.366;2022-10-30T01:40:36;3.27;;;2.30;;
66593;SDS011;53450;42.584;23.366;2022-10-30T01:43:03;3.47;;;2.00;;
66593;SDS011;53450;42.584;23.366;2022-10-30T01:59:52;3.20;;;2.90;;
66593;SDS011;53450;42.584;23.366;2022-10-30T02:02:23;4.20;;;2.83;;
66593;SDS011;53450;42.584;23.366;2022-10-30T02:04:49;5.17;;;2.70;;
66593;SDS011;53450;42.584;23.366;2022-10-30T02:07:15;3.87;;;3.17;;
66593;SDS011;53450;42.584;23.366;2022-10-30T02:09:46;4.57;;;3.38;;
66593;SDS011;53450;42.584;23.366;2022-10-30T02:12:14;10.83;;;3.37;;
66593;SDS011;53450;42.584;23.366;2022-10-30T02:14:42;4.37;;;3.13;;
66593;SDS011;53450;42.584;23.366;2022-10-30T02:17:11;3.00;;;2.70;;
66593;SDS011;53450;42.584;23.366;2022-10-30T02:19:37;2.80;;;2.50;;
66593;SDS011;53450;42.584;23.366;2022-10-30T02:22:03;4.70;;;2.97;;
66593;SDS011;53450;42.584;23.366;2022-10-30T02:24:29;4.13;;;3.00;;
66593;SDS011;53450;42.584;23.366;2022-10-30T02:26:56;4.73;;;3.37;;
66593;SDS011;53450;42.584;23.366;2022-10-30T02:29:22;8.37;;;3.90;;
66593;SDS011;53450;42.584;23.366;2022-10-30T02:31:48;12.10;;;6.03;;
66593;SDS011;53450;42.584;23.366;2022-10-30T02:34:14;15.57;;;5.53;;
66593;SDS011;53450;42.584;23.366;2022-10-30T02:36:39;8.07;;;4.40;;
66593;SDS011;53450;42.584;23.366;2022-10-30T02:39:06;6.77;;;3.83;;
66593;SDS011;53450;42.584;23.366;2022-10-30T02:41:33;6.23;;;4.07;;
66593;SDS011;53450;42.584;23.366;2022-10-30T02:43:59;9.00;;;3.70;;
66593;SDS011;53450;42.584;23.366;2022-10-30T02:46:25;5.63;;;4.10;;
66593;SDS011;53450;42.584;23.366;2022-10-30T02:48:51;12.83;;;4.87;;
66593;SDS011;53450;42.584;23.366;2022-10-30T02:51:17;15.33;;;5.63;;
66593;SDS011;53450;42.584;23.366;2022-10-30T02:53:43;8.93;;;4.27;;
66593;SDS011;53450;42.584;23.366;2022-10-30T02:56:10;9.20;;;4.17;;
66593;SDS011;53450;42.584;23.366;2022-10-30T02:58:38;5.53;;;4.10;;
66593;SDS011;53450;42.584;23.366;2022-10-30T03:01:10;7.77;;;4.20;;
66593;SDS011;53450;42.584;23.366;2022-10-30T03:03:38;7.33;;;4.40;;
66593;SDS011;53450;42.584;23.366;2022-10-30T03:06:05;11.37;;;5.60;;
66593;SDS011;53450;42.584;23.366;2022-10-30T03:08:33;16.43;;;5.87;;
66593;SDS011;53450;42.584;23.366;2022-10-30T03:10:59;13.63;;;5.67;;
66593;SDS011;53450;42.584;23.366;2022-10-30T03:13:30;5.07;;;3.50;;
66593;SDS011;53450;42.584;23.366;2022-10-30T03:16:03;7.53;;;4.53;;
66593;SDS011;53450;42.584;23.366;2022-10-30T03:18:31;7.53;;;5.07;;
66593;SDS011;53450;42.584;23.366;2022-10-30T03:21:01;12.90;;;4.77;;
66593;SDS011;53450;42.584;23.366;2022-10-30T03:23:29;10.07;;;5.50;;
66593;SDS011;53450;42.584;23.366;2022-10-30T03:25:55;8.17;;;5.17;;
66593;SDS011;53450;42.584;23.366;2022-10-30T03:28:25;11.30;;;5.33;;
66593;SDS011;53450;42.584;23.366;2022-10-30T03:31:26;6.50;;;5.23;;
66593;SDS011;53450;42.584;23.366;2022-10-30T03:33:48;6.43;;;4.87;;
66593;SDS011;53450;42.584;23.366;2022-10-30T03:36:14;13.83;;;5.83;;
66593;SDS011;53450;42.584;23.366;2022-10-30T03:38:40;5.30;;;4.27;;
66593;SDS011;53450;42.584;23.366;2022-10-30T03:41:07;7.53;;;4.33;;
66593;SDS011;53450;42.584;23.366;2022-10-30T03:43:33;7.77;;;4.07;;
66593;SDS011;53450;42.584;23.366;2022-10-30T03:45:59;9.33;;;4.93;;
66593;SDS011;53450;42.584;23.366;2022-10-30T03:48:28;7.87;;;5.10;;
66593;SDS011;53450;42.584;23.366;2022-10-30T03:50:56;6.17;;;5.00;;
66593;SDS011;53450;42.584;23.366;2022-10-30T03:53:25;8.27;;;5.13;;
66593;SDS011;53450;42.584;23.366;2022-10-30T03:55:55;10.63;;;6.30;;
66593;SDS011;53450;42.584;23.366;2022-10-30T03:58:24;8.63;;;6.07;;
66593;SDS011;53450;42.584;23.366;2022-10-30T04:00:59;10.05;;;6.43;;
66593;SDS011;53450;42.584;23.366;2022-10-30T04:03:31;13.33;;;6.63;;
66593;SDS011;53450;42.584;23.366;2022-10-30T04:05:57;16.93;;;6.70;;
66593;SDS011;53450;42.584;23.366;2022-10-30T04:08:23;17.60;;;9.30;;
66593;SDS011;53450;42.584;23.366;2022-10-30T04:10:49;30.37;;;9.43;;
66593;SDS011;53450;42.584;23.366;2022-10-30T04:13:15;22.57;;;7.80;;
66593;SDS011;53450;42.584;23.366;2022-10-30T04:15:47;16.53;;;6.97;;
66593;SDS011;53450;42.584;23.366;2022-10-30T04:18:17;14.50;;;5.47;;
66593;SDS011;53450;42.584;23.366;2022-10-30T04:20:43;10.67;;;4.90;;
66593;SDS011;53450;42.584;23.366;2022-10-30T04:23:15;8.47;;;4.93;;
66593;SDS011;53450;42.584;23.366;2022-10-30T04:25:42;11.67;;;4.40;;
66593;SDS011;53450;42.584;23.366;2022-10-30T04:28:09;10.17;;;4.73;;
66593;SDS011;53450;42.584;23.366;2022-10-30T04:30:36;9.33;;;4.23;;
66593;SDS011;53450;42.584;23.366;2022-10-30T04:33:04;10.23;;;4.40;;
66593;SDS011;53450;42.584;23.366;2022-10-30T04:35:33;11.67;;;4.30;;
66593;SDS011;53450;42.584;23.366;2022-10-30T04:38:03;12.10;;;5.93;;
66593;SDS011;53450;42.584;23.366;2022-10-30T04:40:34;28.97;;;9.23;;
66593;SDS011;53450;42.584;23.366;2022-10-30T04:43:04;33.67;;;10.50;;
66593;SDS011;53450;42.584;23.366;2022-10-30T04:45:31;35.80;;;13.87;;
66593;SDS011;53450;42.584;23.366;2022-10-30T04:48:01;36.93;;;14.90;;
66593;SDS011;53450;42.584;23.366;2022-10-30T04:50:32;43.10;;;16.83;;
66593;SDS011;53450;42.584;23.366;2022-10-30T04:53:06;30.67;;;15.23;;
66593;SDS011;53450;42.584;23.366;2022-10-30T04:55:36;39.50;;;15.80;;
66593;SDS011;53450;42.584;23.366;2022-10-30T04:58:01;31.30;;;15.13;;
66593;SDS011;53450;42.584;23.366;2022-10-30T05:00:30;43.27;;;17.47;;
66593;SDS011;53450;42.584;23.366;2022-10-30T05:03:22;41.23;;;18.03;;
66593;SDS011;53450;42.584;23.366;2022-10-30T05:05:55;43.73;;;17.77;;
66593;SDS011;53450;42.584;23.366;2022-10-30T05:08:55;38.67;;;16.27;;
66593;SDS011;53450;42.584;23.366;2022-10-30T05:11:30;41.50;;;16.50;;
66593;SDS011;53450;42.584;23.366;2022-10-30T05:13:57;45.57;;;16.97;;
66593;SDS011;53450;42.584;23.366;2022-10-30T05:16:22;34.93;;;15.80;;
66593;SDS011;53450;42.584;23.366;2022-10-30T05:18:50;39.17;;;15.23;;
66593;SDS011;53450;42.584;23.366;2022-10-30T05:21:15;35.63;;;13.87;;
66593;SDS011;53450;42.584;23.366;2022-10-30T05:23:41;34.20;;;13.73;;
66593;SDS011;53450;42.584;23.366;2022-10-30T05:26:08;28.33;;;13.40;;
66593;SDS011;53450;42.584;23.366;2022-10-30T05:28:34;30.43;;;12.70;;
66593;SDS011;53450;42.584;23.366;2022-10-30T05:31:00;30.40;;;14.87;;
66593;SDS011;53450;42.584;23.366;2022-10-30T05:33:51;37.00;;;14.75;;
66593;SDS011;53450;42.584;23.366;2022-10-30T05:36:42;41.67;;;13.17;;
66593;SDS011;53450;42.584;23.366;2022-10-30T05:39:08;27.23;;;13.53;;
66593;SDS011;53450;42.584;23.366;2022-10-30T05:41:37;27.27;;;12.57;;
66593;SDS011;53450;42.584;23.366;2022-10-30T05:44:02;25.80;;;11.73;;
66593;SDS011;53450;42.584;23.366;2022-10-30T05:46:30;24.40;;;12.03;;
66593;SDS011;53450;42.584;23.366;2022-10-30T05:49:05;26.33;;;11.23;;
66593;SDS011;53450;42.584;23.366;2022-10-30T05:51:30;43.07;;;14.43;;
66593;SDS011;53450;42.584;23.366;2022-10-30T05:54:02;40.33;;;16.83;;
66593;SDS011;53450;42.584;23.366;2022-10-30T05:56:29;39.87;;;18.53;;
66593;SDS011;53450;42.584;23.366;2022-10-30T05:58:56;50.57;;;19.83;;
66593;SDS011;53450;42.584;23.366;2022-10-30T06:01:21;57.40;;;20.70;;
66593;SDS011;53450;42.584;23.366;2022-10-30T06:03:51;42.80;;;16.27;;
66593;SDS011;53450;42.584;23.366;2022-10-30T06:06:17;35.53;;;14.35;;
66593;SDS011;53450;42.584;23.366;2022-10-30T06:08:43;37.17;;;16.95;;
66593;SDS011;53450;42.584;23.366;2022-10-30T06:11:29;33.87;;;14.63;;
66593;SDS011;53450;42.584;23.366;2022-10-30T06:13:57;39.92;;;15.35;;
66593;SDS011;53450;42.584;23.366;2022-10-30T06:16:34;43.28;;;15.57;;
66593;SDS011;53450;42.584;23.366;2022-10-30T06:19:25;42.50;;;16.27;;
66593;SDS011;53450;42.584;23.366;2022-10-30T06:22:16;45.00;;;18.13;;
66593;SDS011;53450;42.584;23.366;2022-10-30T06:24:48;38.30;;;16.40;;
66593;SDS011;53450;42.584;23.366;2022-10-30T06:27:37;35.92;;;17.92;;
66593;SDS011;53450;42.584;23.366;2022-10-30T06:30:03;44.70;;;18.90;;
66593;SDS011;53450;42.584;23.366;2022-10-30T06:32:29;32.28;;;17.55;;
66593;SDS011;53450;42.584;23.366;2022-10-30T06:34:55;43.33;;;18.55;;
66593;SDS011;53450;42.584;23.366;2022-10-30T06:37:21;35.00;;;16.35;;
66593;SDS011;53450;42.584;23.366;2022-10-30T06:39:47;35.20;;;15.90;;
66593;SDS011;53450;42.584;23.366;2022-10-30T06:42:51;30.92;;;15.55;;
66593;SDS011;53450;42.584;23.366;2022-10-30T06:45:28;37.78;;;14.50;;
66593;SDS011;53450;42.584;23.366;2022-10-30T06:47:54;28.17;;;13.32;;
66593;SDS011;53450;42.584;23.366;2022-10-30T06:50:20;29.67;;;12.75;;
66593;SDS011;53450;42.584;23.366;2022-10-30T06:52:46;27.00;;;12.15;;
66593;SDS011;53450;42.584;23.366;2022-10-30T06:55:14;33.55;;;13.82;;
66593;SDS011;53450;42.584;23.366;2022-10-30T06:57:52;26.52;;;13.02;;
66593;SDS011;53450;42.584;23.366;2022-10-30T07:00:27;26.38;;;12.50;;
66593;SDS011;53450;42.584;23.366;2022-10-30T07:03:11;34.30;;;12.65;;
66593;SDS011;53450;42.584;23.366;2022-10-30T07:06:02;36.05;;;12.18;;
66593;SDS011;53450;42.584;23.366;2022-10-30T07:08:31;37.17;;;15.52;;
66593;SDS011;53450;42.584;23.366;2022-10-30T07:10:57;36.83;;;15.88;;
66593;SDS011;53450;42.584;23.366;2022-10-30T07:13:51;32.47;;;14.77;;
66593;SDS011;53450;42.584;23.366;2022-10-30T07:16:28;40.53;;;15.80;;
66593;SDS011;53450;42.584;23.366;2022-10-30T07:18:53;46.53;;;19.60;;
66593;SDS011;53450;42.584;23.366;2022-10-30T07:21:20;56.25;;;20.13;;
66593;SDS011;53450;42.584;23.366;2022-10-30T07:23:46;53.53;;;21.13;;
66593;SDS011;53450;42.584;23.366;2022-10-30T07:26:33;41.70;;;18.20;;
66593;SDS011;53450;42.584;23.366;2022-10-30T07:29:06;56.50;;;19.67;;
66593;SDS011;53450;42.584;23.366;2022-10-30T07:31:41;45.47;;;17.00;;
66593;SDS011;53450;42.584;23.366;2022-10-30T07:34:10;46.95;;;18.38;;
66593;SDS011;53450;42.584;23.366;2022-10-30T07:36:58;39.95;;;18.75;;
66593;SDS011;53450;42.584;23.366;2022-10-30T07:39:32;54.88;;;19.95;;
66593;SDS011;53450;42.584;23.366;2022-10-30T07:42:18;53.25;;;21.77;;
66593;SDS011;53450;42.584;23.366;2022-10-30T07:45:22;36.58;;;18.00;;
66593;SDS011;53450;42.584;23.366;2022-10-30T07:48:06;38.42;;;17.27;;
66593;SDS011;53450;42.584;23.366;2022-10-30T07:50:39;40.50;;;18.42;;
66593;SDS011;53450;42.584;23.366;2022-10-30T07:53:06;51.97;;;21.00;;
66593;SDS011;53450;42.584;23.366;2022-10-30T07:55:32;43.40;;;18.10;;
66593;SDS011;53450;42.584;23.366;2022-10-30T07:58:12;44.60;;;18.75;;
66593;SDS011;53450;42.584;23.366;2022-10-30T08:00:52;49.22;;;18.60;;
66593;SDS011;53450;42.584;23.366;2022-10-30T08:03:26;40.55;;;17.40;;
66593;SDS011;53450;42.584;23.366;2022-10-30T08:05:54;40.40;;;17.42;;
66593;SDS011;53450;42.584;23.366;2022-10-30T08:08:33;42.92;;;18.65;;
66593;SDS011;53450;42.584;23.366;2022-10-30T08:11:08;36.92;;;15.75;;
66593;SDS011;53450;42.584;23.366;2022-10-30T08:13:34;31.60;;;14.00;;
66593;SDS011;53450;42.584;23.366;2022-10-30T08:16:00;37.08;;;13.95;;
66593;SDS011;53450;42.584;23.366;2022-10-30T08:18:26;35.28;;;14.93;;
66593;SDS011;53450;42.584;23.366;2022-10-30T08:20:51;27.60;;;12.60;;
66593;SDS011;53450;42.584;23.366;2022-10-30T08:23:17;31.45;;;13.40;;
66593;SDS011;53450;42.584;23.366;2022-10-30T08:25:44;29.77;;;12.93;;
66593;SDS011;53450;42.584;23.366;2022-10-30T08:28:11;39.00;;;12.90;;
66593;SDS011;53450;42.584;23.366;2022-10-30T08:30:38;29.58;;;12.70;;
66593;SDS011;53450;42.584;23.366;2022-10-30T08:33:09;38.10;;;13.80;;
66593;SDS011;53450;42.584;23.366;2022-10-30T08:36:07;33.00;;;13.65;;
66593;SDS011;53450;42.584;23.366;2022-10-30T08:38:33;38.75;;;14.93;;
66593;SDS011;53450;42.584;23.366;2022-10-30T08:41:10;28.13;;;13.13;;
66593;SDS011;53450;42.584;23.366;2022-10-30T08:43:42;29.90;;;13.13;;
66593;SDS011;53450;42.584;23.366;2022-10-30T08:46:08;27.50;;;11.93;;
66593;SDS011;53450;42.584;23.366;2022-10-30T08:48:34;23.73;;;10.75;;
66593;SDS011;53450;42.584;23.366;2022-10-30T08:50:59;29.40;;;10.65;;
66593;SDS011;53450;42.584;23.366;2022-10-30T08:53:31;23.50;;;11.77;;
66593;SDS011;53450;42.584;23.366;2022-10-30T08:55:58;26.00;;;11.10;;
66593;SDS011;53450;42.584;23.366;2022-10-30T08:58:30;25.05;;;10.98;;
66593;SDS011;53450;42.584;23.366;2022-10-30T09:00:56;36.63;;;12.27;;
66593;SDS011;53450;42.584;23.366;2022-10-30T09:03:22;30.75;;;13.13;;
66593;SDS011;53450;42.584;23.366;2022-10-30T09:06:06;31.83;;;12.40;;
66593;SDS011;53450;42.584;23.366;2022-10-30T09:08:50;31.42;;;11.82;;
66593;SDS011;53450;42.584;23.366;2022-10-30T09:11:26;27.63;;;12.80;;
66593;SDS011;53450;42.584;23.366;2022-10-30T09:13:52;26.30;;;12.15;;
66593;SDS011;53450;42.584;23.366;2022-10-30T09:16:17;24.95;;;12.25;;
66593;SDS011;53450;42.584;23.366;2022-10-30T09:18:43;31.58;;;12.35;;
66593;SDS011;53450;42.584;23.366;2022-10-30T09:21:09;25.05;;;12.65;;
66593;SDS011;53450;42.584;23.366;2022-10-30T09:23:42;31.67;;;12.85;;
66593;SDS011;53450;42.584;23.366;2022-10-30T09:26:27;34.00;;;13.40;;
66593;SDS011;53450;42.584;23.366;2022-10-30T09:29:02;40.10;;;13.25;;
66593;SDS011;53450;42.584;23.366;2022-10-30T09:31:47;28.50;;;11.70;;
66593;SDS011;53450;42.584;23.366;2022-10-30T09:34:17;35.17;;;12.43;;
66593;SDS011;53450;42.584;23.366;2022-10-30T09:36:45;31.63;;;12.10;;
66593;SDS011;53450;42.584;23.366;2022-10-30T09:39:12;27.50;;;12.15;;
66593;SDS011;53450;42.584;23.366;2022-10-30T09:52:20;25.52;;;11.32;;
66593;SDS011;53450;42.584;23.366;2022-10-30T09:54:55;28.23;;;12.80;;
66593;SDS011;53450;42.584;23.366;2022-10-30T10:00:26;27.35;;;12.18;;
66593;SDS011;53450;42.584;23.366;2022-10-30T10:03:15;30.00;;;12.32;;
66593;SDS011;53450;42.584;23.366;2022-10-30T10:06:02;35.78;;;12.75;;
66593;SDS011;53450;42.584;23.366;2022-10-30T10:11:57;27.75;;;13.82;;
66593;SDS011;53450;42.584;23.366;2022-10-30T10:14:43;44.90;;;16.20;;
66593;SDS011;53450;42.584;23.366;2022-10-30T10:17:11;64.97;;;20.83;;
66593;SDS011;53450;42.584;23.366;2022-10-30T10:19:40;20.98;;;10.15;;
66593;SDS011;53450;42.584;23.366;2022-10-30T10:22:24;22.17;;;10.75;;
66593;SDS011;53450;42.584;23.366;2022-10-30T10:24:55;29.35;;;13.45;;
66593;SDS011;53450;42.584;23.366;2022-10-30T10:30:16;36.95;;;13.55;;
66593;SDS011;53450;42.584;23.366;2022-10-30T10:35:55;24.83;;;11.65;;
66593;SDS011;53450;42.584;23.366;2022-10-30T10:51:40;21.83;;;6.85;;
66593;SDS011;53450;42.584;23.366;2022-10-30T10:54:13;22.80;;;8.82;;
66593;SDS011;53450;42.584;23.366;2022-10-30T10:56:47;28.60;;;11.05;;
66593;SDS011;53450;42.584;23.366;2022-10-30T10:59:16;34.45;;;10.95;;
66593;SDS011;53450;42.584;23.366;2022-10-30T11:02:49;28.20;;;10.77;;
66593;SDS011;53450;42.584;23.366;2022-10-30T11:04:53;30.65;;;9.98;;
66593;SDS011;53450;42.584;23.366;2022-10-30T11:07:25;26.25;;;9.40;;
66593;SDS011;53450;42.584;23.366;2022-10-30T11:09:55;15.68;;;8.85;;
66593;SDS011;53450;42.584;23.366;2022-10-30T11:12:24;22.35;;;9.13;;
66593;SDS011;53450;42.584;23.366;2022-10-30T11:14:53;22.80;;;8.40;;
66593;SDS011;53450;42.584;23.366;2022-10-30T11:17:27;26.15;;;8.75;;
66593;SDS011;53450;42.584;23.366;2022-10-30T11:20:20;18.30;;;6.28;;
66593;SDS011;53450;42.584;23.366;2022-10-30T11:22:53;10.90;;;5.85;;
66593;SDS011;53450;42.584;23.366;2022-10-30T11:25:25;14.23;;;5.82;;
66593;SDS011;53450;42.584;23.366;2022-10-30T11:27:59;12.10;;;4.38;;
66593;SDS011;53450;42.584;23.366;2022-10-30T11:30:27;10.40;;;5.20;;
66593;SDS011;53450;42.584;23.366;2022-10-30T11:32:56;19.02;;;5.57;;
66593;SDS011;53450;42.584;23.366;2022-10-30T11:35:23;16.17;;;6.30;;
66593;SDS011;53450;42.584;23.366;2022-10-30T11:37:50;15.57;;;5.95;;
66593;SDS011;53450;42.584;23.366;2022-10-30T11:40:20;14.75;;;5.78;;
66593;SDS011;53450;42.584;23.366;2022-10-30T11:42:57;16.85;;;5.55;;
66593;SDS011;53450;42.584;23.366;2022-10-30T11:45:47;12.40;;;5.70;;
66593;SDS011;53450;42.584;23.366;2022-10-30T11:48:37;10.68;;;4.97;;
66593;SDS011;53450;42.584;23.366;2022-10-30T11:51:36;11.40;;;5.03;;
66593;SDS011;53450;42.584;23.366;2022-10-30T11:54:03;6.85;;;3.75;;
66593;SDS011;53450;42.584;23.366;2022-10-30T11:56:30;8.88;;;4.40;;
66593;SDS011;53450;42.584;23.366;2022-10-30T11:58:58;8.80;;;3.47;;
66593;SDS011;53450;42.584;23.366;2022-10-30T12:01:29;24.58;;;4.25;;
66593;SDS011;53450;42.584;23.366;2022-10-30T12:04:11;8.63;;;3.85;;
66593;SDS011;53450;42.584;23.366;2022-10-30T12:06:39;9.57;;;3.85;;
66593;SDS011;53450;42.584;23.366;2022-10-30T12:09:12;12.50;;;4.32;;
66593;SDS011;53450;42.584;23.366;2022-10-30T12:11:44;10.98;;;3.65;;
66593;SDS011;53450;42.584;23.366;2022-10-30T12:14:18;10.43;;;3.92;;
66593;SDS011;53450;42.584;23.366;2022-10-30T12:16:46;10.00;;;3.55;;
66593;SDS011;53450;42.584;23.366;2022-10-30T12:19:13;9.43;;;4.65;;
66593;SDS011;53450;42.584;23.366;2022-10-30T12:21:44;10.25;;;4.43;;
66593;SDS011;53450;42.584;23.366;2022-10-30T12:24:38;11.38;;;5.00;;
66593;SDS011;53450;42.584;23.366;2022-10-30T12:27:33;10.90;;;4.15;;
66593;SDS011;53450;42.584;23.366;2022-10-30T12:30:06;7.78;;;4.07;;
66593;SDS011;53450;42.584;23.366;2022-10-30T12:32:42;5.60;;;3.88;;
66593;SDS011;53450;42.584;23.366;2022-10-30T12:35:20;10.65;;;3.70;;
66593;SDS011;53450;42.584;23.366;2022-10-30T12:38:03;6.72;;;3.42;;
66593;SDS011;53450;42.584;23.366;2022-10-30T12:41:01;6.28;;;3.63;;
66593;SDS011;53450;42.584;23.366;2022-10-30T12:51:57;8.32;;;3.47;;
66593;SDS011;53450;42.584;23.366;2022-10-30T12:57:49;9.63;;;3.22;;
66593;SDS011;53450;42.584;23.366;2022-10-30T13:02:35;18.73;;;3.60;;
66593;SDS011;53450;42.584;23.366;2022-10-30T13:08:11;9.32;;;3.72;;
66593;SDS011;53450;42.584;23.366;2022-10-30T13:11:03;10.85;;;3.15;;
66593;SDS011;53450;42.584;23.366;2022-10-30T13:13:36;24.90;;;4.00;;
66593;SDS011;53450;42.584;23.366;2022-10-30T13:16:07;6.60;;;3.47;;
66593;SDS011;53450;42.584;23.366;2022-10-30T13:18:38;8.52;;;3.53;;
66593;SDS011;53450;42.584;23.366;2022-10-30T13:23:45;9.15;;;3.20;;
66593;SDS011;53450;42.584;23.366;2022-10-30T13:26:19;13.52;;;3.55;;
66593;SDS011;53450;42.584;23.366;2022-10-30T13:28:54;8.90;;;3.22;;
66593;SDS011;53450;42.584;23.366;2022-10-30T13:31:38;4.32;;;2.95;;
66593;SDS011;53450;42.584;23.366;2022-10-30T13:36:47;6.40;;;2.60;;
66593;SDS011;53450;42.584;23.366;2022-10-30T13:50:32;5.03;;;2.28;;
66593;SDS011;53450;42.584;23.366;2022-10-30T13:53:09;6.47;;;2.42;;
66593;SDS011;53450;42.584;23.366;2022-10-30T13:55:45;15.25;;;2.92;;
66593;SDS011;53450;42.584;23.366;2022-10-30T14:06:09;8.50;;;2.20;;
66593;SDS011;53450;42.584;23.366;2022-10-30T14:11:50;15.60;;;3.25;;
66593;SDS011;53450;42.584;23.366;2022-10-30T14:22:45;21.38;;;5.10;;
66593;SDS011;53450;42.584;23.366;2022-10-30T14:25:37;11.63;;;4.78;;
66593;SDS011;53450;42.584;23.366;2022-10-30T14:28:03;10.25;;;3.20;;
66593;SDS011;53450;42.584;23.366;2022-10-30T14:30:29;11.77;;;2.75;;
66593;SDS011;53450;42.584;23.366;2022-10-30T14:32:57;12.65;;;2.55;;
66593;SDS011;53450;42.584;23.366;2022-10-30T14:35:33;14.95;;;3.00;;
66593;SDS011;53450;42.584;23.366;2022-10-30T14:40:36;7.60;;;2.40;;
66593;SDS011;53450;42.584;23.366;2022-10-30T14:43:08;13.07;;;3.28;;
66593;SDS011;53450;42.584;23.366;2022-10-30T14:45:44;14.98;;;5.78;;
66593;SDS011;53450;42.584;23.366;2022-10-30T14:48:36;9.77;;;3.40;;
66593;SDS011;53450;42.584;23.366;2022-10-30T14:51:26;8.65;;;2.65;;
66593;SDS011;53450;42.584;23.366;2022-10-30T14:54:00;30.25;;;12.52;;
66593;SDS011;53450;42.584;23.366;2022-10-30T14:56:54;48.83;;;21.63;;
66593;SDS011;53450;42.584;23.366;2022-10-30T14:59:21;24.63;;;7.68;;
66593;SDS011;53450;42.584;23.366;2022-10-30T15:07:52;23.00;;;10.18;;
66593;SDS011;53450;42.584;23.366;2022-10-30T15:15:41;11.60;;;4.03;;
66593;SDS011;53450;42.584;23.366;2022-10-30T15:18:17;11.00;;;3.70;;
66593;SDS011;53450;42.584;23.366;2022-10-30T15:20:48;15.65;;;3.90;;
66593;SDS011;53450;42.584;23.366;2022-10-30T15:25:49;11.32;;;2.78;;
66593;SDS011;53450;42.584;23.366;2022-10-30T15:28:18;10.23;;;3.30;;
66593;SDS011;53450;42.584;23.366;2022-10-30T15:33:59;5.70;;;3.08;;
66593;SDS011;53450;42.584;23.366;2022-10-30T15:39:17;18.42;;;2.92;;
66593;SDS011;53450;42.584;23.366;2022-10-30T15:41:56;20.75;;;3.47;;
66593;SDS011;53450;42.584;23.366;2022-10-30T15:44:37;5.65;;;2.55;;
66593;SDS011;53450;42.584;23.366;2022-10-30T15:47:16;10.98;;;2.70;;
66593;SDS011;53450;42.584;23.366;2022-10-30T15:49:46;4.88;;;2.75;;
66593;SDS011;53450;42.584;23.366;2022-10-30T15:52:16;9.32;;;3.72;;
66593;SDS011;53450;42.584;23.366;2022-10-30T15:54:44;25.77;;;4.40;;
66593;SDS011;53450;42.584;23.366;2022-10-30T15:57:29;139.55;;;67.72;;
66593;SDS011;53450;42.584;23.366;2022-10-30T16:00:02;192.32;;;62.05;;
66593;SDS011;53450;42.584;23.366;2022-10-30T16:02:32;158.75;;;46.67;;
66593;SDS011;53450;42.584;23.366;2022-10-30T16:04:58;64.78;;;21.10;;
66593;SDS011;53450;42.584;23.366;2022-10-30T16:07:24;32.90;;;10.60;;
66593;SDS011;53450;42.584;23.366;2022-10-30T16:09:55;26.30;;;9.15;;
66593;SDS011;53450;42.584;23.366;2022-10-30T16:12:26;102.03;;;30.42;;
66593;SDS011;53450;42.584;23.366;2022-10-30T16:14:55;162.50;;;47.42;;
66593;SDS011;53450;42.584;23.366;2022-10-30T16:17:22;92.55;;;26.20;;
66593;SDS011;53450;42.584;23.366;2022-10-30T16:19:50;63.17;;;21.83;;
66593;SDS011;53450;42.584;23.366;2022-10-30T16:22:20;23.45;;;8.80;;
66593;SDS011;53450;42.584;23.366;2022-10-30T16:24:50;28.65;;;10.18;;
66593;SDS011;53450;42.584;23.366;2022-10-30T16:27:18;16.80;;;8.88;;
66593;SDS011;53450;42.584;23.366;2022-10-30T16:29:46;14.95;;;7.00;;
66593;SDS011;53450;42.584;23.366;2022-10-30T16:32:15;16.23;;;8.07;;
66593;SDS011;53450;42.584;23.366;2022-10-30T16:35:08;17.58;;;8.32;;
66593;SDS011;53450;42.584;23.366;2022-10-30T16:37:36;13.18;;;6.78;;
66593;SDS011;53450;42.584;23.366;2022-10-30T16:40:05;21.58;;;7.38;;
66593;SDS011;53450;42.584;23.366;2022-10-30T16:42:34;11.80;;;4.63;;
66593;SDS011;53450;42.584;23.366;2022-10-30T16:47:36;11.05;;;3.88;;
66593;SDS011;53450;42.584;23.366;2022-10-30T16:50:03;9.13;;;3.60;;
66593;SDS011;53450;42.584;23.366;2022-10-30T16:53:03;7.25;;;3.83;;
66593;SDS011;53450;42.584;23.366;2022-10-30T16:56:04;7.47;;;3.72;;
66593;SDS011;53450;42.584;23.366;2022-10-30T16:58:48;10.13;;;3.40;;
66593;SDS011;53450;42.584;23.366;2022-10-30T17:01:15;4.97;;;2.88;;
66593;SDS011;53450;42.584;23.366;2022-10-30T17:03:41;7.15;;;3.03;;
66593;SDS011;53450;42.584;23.366;2022-10-30T17:06:27;9.73;;;5.38;;
66593;SDS011;53450;42.584;23.366;2022-10-30T17:09:46;8.65;;;4.45;;
66593;SDS011;53450;42.584;23.366;2022-10-30T17:12:11;16.80;;;6.90;;
66593;SDS011;53450;42.584;23.366;2022-10-30T17:17:18;13.35;;;5.95;;